Latest Weather Observations for Lake Macquarie - Cooranbong

IDN60801

Issued at 10:03 pm EST Saturday 24 June 2017 (issued every 30 minutes, with the page automatically refreshed every 10 minutes)

About weather observations | Map of weather stations | Latest weather observations for NSW | Other Formats
Station Details ID: 061412 Name: LAKE MACQUARIE AWS Lat: -33.09 Lon: 151.46 Height: 6.0 m
Data from the previous 72 hours. | See also: Recent months at Lake Macquarie - Cooranbong
Date/Time
EST
Temp
°C
App
Temp
°C
Dew
Point
°C
Rel
Hum
%
Delta-T
°C
Wind Press
QNH
hPa
Press
MSL
hPa
Rain since
9am
mm
Dir  Spd
km/h
Gust
km/h
Spd
kts
Gust
kts
24/10:00pm 6.3 5.4 5.9 97 0.2 CALM 0 0 0 0 1018.2 1018.2 0.0
24/09:30pm 6.2 5.2 5.6 96 0.3 CALM 0 0 0 0 1018.2 1018.2 0.0
24/09:00pm 7.0 6.2 6.6 97 0.2 CALM 0 0 0 0 1018.0 1018.0 0.0
24/08:30pm 7.5 6.8 7.1 97 0.2 CALM 0 0 0 0 1017.7 1017.7 0.0
24/08:00pm 8.1 7.5 7.5 96 0.3 CALM 0 0 0 0 1017.5 1017.5 0.0
24/07:30pm 8.6 8.1 8.0 96 0.3 CALM 0 0 0 0 1017.5 1017.5 0.0
24/07:00pm 9.2 8.5 8.4 95 0.4 N 2 2 1 1 1017.3 1017.3 0.0
24/06:30pm 9.8 9.5 8.6 92 0.6 CALM 0 0 0 0 1016.9 1016.9 0.0
24/06:00pm 10.8 10.6 9.1 89 0.8 CALM 0 4 0 2 1016.5 1016.5 0.0
24/05:30pm 11.6 11.5 9.3 86 1.2 CALM 0 0 0 0 1016.4 1016.4 0.0
24/05:00pm 13.4 13.3 9.3 76 2.1 CALM 0 0 0 0 1016.0 1016.0 0.0
24/04:30pm 15.8 14.8 8.8 63 3.6 N 4 6 2 3 1015.8 1015.8 0.0
24/04:00pm 18.1 17.4 8.4 53 5.0 NNW 2 4 1 2 1015.8 1015.8 0.0
24/03:30pm 18.5 16.6 6.7 46 5.9 N 6 9 3 5 1015.7 1015.7 0.0
24/03:00pm 19.5 18.0 6.6 43 6.5 NW 4 7 2 4 1015.6 1015.6 0.0
24/02:30pm 18.6 16.3 5.8 43 6.3 NW 7 11 4 6 1015.6 1015.6 0.0
24/02:00pm 19.3 16.7 6.1 42 6.5 NW 9 17 5 9 1015.6 1015.6 0.0
24/01:30pm 18.8 15.7 5.6 42 6.5 NW 11 19 6 10 1015.7 1015.7 0.0
24/01:00pm 18.6 16.4 6.1 44 6.2 NW 7 17 4 9 1016.0 1016.0 0.0
24/12:30pm 18.5 15.9 6.0 44 6.2 WNW 9 17 5 9 1016.3 1016.3 0.0
24/12:00pm 17.9 15.2 5.5 44 6.0 WNW 9 19 5 10 1016.7 1016.7 0.0
24/11:30am 17.9 14.4 5.5 44 6.0 NW 13 22 7 12 1017.1 1017.1 0.0
24/11:00am 17.4 13.8 5.0 44 5.9 NW 13 24 7 13 1017.4 1017.4 0.0
24/10:30am 17.3 14.7 5.9 47 5.6 NW 9 15 5 8 1017.8 1017.8 0.0
24/10:00am 16.8 14.1 5.7 48 5.4 NW 9 17 5 9 1018.0 1018.0 0.0
24/09:30am 15.5 12.6 4.8 49 5.0 WNW 9 20 5 11 1018.0 1018.0 0.0
24/09:00am 15.1 11.5 4.8 50 4.8 NW 13 22 7 12 1017.8 1017.8 0.0
24/08:30am 15.3 10.7 3.8 46 5.3 WNW 17 30 9 16 1017.5 1017.5 0.0
24/08:00am 13.9 10.5 4.2 52 4.4 NNW 11 20 6 11 1017.0 1017.0 0.0
24/07:30am 13.5 10.8 3.8 52 4.4 NW 7 17 4 9 1016.8 1016.8 0.0
24/07:00am 12.2 9.2 4.2 58 3.6 NNW 9 19 5 10 1016.6 1016.6 0.0
24/06:30am 12.6 9.6 4.3 57 3.8 NW 9 19 5 10 1016.1 1016.1 0.0
24/06:00am 12.1 8.4 4.3 59 3.5 WNW 13 22 7 12 1015.8 1015.8 0.0
24/05:30am 12.6 8.5 4.3 57 3.8 WNW 15 26 8 14 1015.5 1015.5 0.0
24/05:00am 11.9 8.6 4.6 61 3.3 WNW 11 17 6 9 1015.3 1015.3 0.0
24/04:30am 11.2 8.9 5.5 68 2.6 NW 7 15 4 8 1015.0 1015.0 0.0
24/04:00am 10.2 7.9 5.8 74 2.0 NNW 7 13 4 7 1015.2 1015.2 0.0
24/03:30am 7.3 5.2 5.8 90 0.7 NNW 6 7 3 4 1015.1 1015.1 0.0
24/03:00am 7.7 5.6 5.8 88 0.9 NNW 6 9 3 5 1015.3 1015.3 0.0
24/02:30am 5.9 4.1 5.5 97 0.2 NNE 4 6 2 3 1015.4 1015.4 0.0
24/02:00am 6.2 4.9 5.8 97 0.2 NNE 2 4 1 2 1015.5 1015.5 0.0
24/01:30am 6.5 4.8 6.1 97 0.2 NNE 4 6 2 3 1015.4 1015.4 0.0
24/01:00am 6.8 5.2 6.2 96 0.3 N 4 7 2 4 1015.5 1015.5 0.0
24/12:30am 6.9 6.1 6.5 97 0.2 CALM 0 2 0 1 1015.1 1015.1 0.0
24/12:00am 7.5 6.8 7.1 97 0.2 CALM 0 2 0 1 1015.5 1015.5 0.0
 
Date/Time
EST
Temp
°C
App
Temp
°C
Dew
Point
°C
Rel
Hum
%
Delta-T
°C
Wind Press
QNH
hPa
Press
MSL
hPa
Rain since
9am
mm
Dir  Spd
km/h
Gust
km/h
Spd
kts
Gust
kts
23/11:30pm 7.5 6.3 6.6 94 0.4 NNW 2 4 1 2 1015.5 1015.5 0.0
23/11:00pm 8.1 6.8 7.7 97 0.2 NW 4 6 2 3 1015.7 1015.7 0.0
23/10:30pm 8.5 8.1 8.1 97 0.2 CALM 0 0 0 0 1015.7 1015.7 0.0
23/10:00pm 8.4 7.9 7.8 96 0.3 CALM 0 0 0 0 1016.0 1016.0 0.0
23/09:30pm 8.9 8.5 8.3 96 0.3 CALM 0 0 0 0 1015.7 1015.7 0.0
23/09:00pm 9.1 8.8 8.5 96 0.3 CALM 0 0 0 0 1015.9 1015.9 0.0
23/08:30pm 9.0 8.7 8.6 97 0.2 CALM 0 0 0 0 1016.1 1016.1 0.0
23/08:00pm 9.3 9.0 8.5 95 0.4 CALM 0 0 0 0 1016.2 1016.2 0.0
23/07:30pm 9.9 9.7 9.0 94 0.4 CALM 0 0 0 0 1016.2 1016.2 0.0
23/07:00pm 10.5 10.3 8.9 90 0.8 CALM 0 0 0 0 1016.1 1016.1 0.0
23/06:30pm 11.5 11.3 9.2 86 1.2 CALM 0 0 0 0 1016.3 1016.3 0.0
23/06:00pm 12.4 12.3 9.6 83 1.4 CALM 0 0 0 0 1016.0 1016.0 0.0
23/05:30pm 13.2 12.6 9.1 76 2.1 NNW 2 4 1 2 1015.9 1015.9 0.0
23/05:00pm 14.8 14.5 8.7 67 3.1 CALM 0 2 0 1 1015.6 1015.6 0.0
23/04:30pm 17.1 15.4 7.5 53 4.8 W 6 13 3 7 1015.6 1015.6 0.0
23/04:00pm 17.1 15.3 8.0 55 4.6 NNW 7 15 4 8 1015.5 1015.5 0.0
23/03:30pm 16.4 15.3 8.6 60 4.0 NNW 4 11 2 6 1015.3 1015.3 0.0
23/03:00pm 16.0 15.6 11.0 72 2.7 NW 4 9 2 5 1015.7 1015.7 0.0
23/02:30pm 16.3 15.1 9.7 65 3.4 N 6 9 3 5 1015.8 1015.8 0.0
23/02:00pm 16.2 15.0 9.6 65 3.4 N 6 7 3 4 1016.4 1016.4 0.0
23/01:30pm 16.7 16.0 10.1 65 3.5 N 4 9 2 5 1016.6 1016.6 0.0
23/01:00pm 17.7 16.6 9.8 60 4.2 NW 6 9 3 5 1017.3 1017.3 0.0
23/12:30pm 17.7 17.9 11.9 69 3.2 SSW 2 6 1 3 1017.8 1017.8 0.0
23/12:00pm 17.8 18.2 11.4 66 3.5 CALM 0 0 0 0 1018.1 1018.1 0.0
23/11:30am 17.0 17.0 12.3 74 2.6 NNE 4 6 2 3 1019.1 1019.1 0.0
23/11:00am 16.1 16.2 11.5 74 2.5 N 2 6 1 3 1019.8 1019.8 0.0
23/10:30am 15.7 15.0 11.3 75 2.4 NNE 6 7 3 4 1020.7 1020.7 0.0
23/10:00am 14.4 13.8 11.6 83 1.5 N 6 9 3 5 1020.8 1020.8 0.0
23/09:30am 12.3 12.4 11.4 94 0.5 N 2 4 1 2 1021.1 1021.1 0.0
23/09:00am 11.3 11.7 11.3 100 0.0 CALM 0 4 0 2 1021.3 1021.3 0.2
23/08:30am 7.6 7.0 7.6 100 0.0 CALM 0 0 0 0 1021.2 1021.2 0.2
23/08:00am 5.7 4.7 5.7 100 0.0 CALM 0 0 0 0 1021.3 1021.3 0.2
23/07:30am 4.5 3.3 4.5 100 0.0 CALM 0 0 0 0 1021.1 1021.1 0.2
23/07:00am 3.9 2.2 3.8 99 0.0 N 2 6 1 3 1020.9 1020.9 0.2
23/06:30am 4.0 2.7 3.9 99 0.0 CALM 0 0 0 0 1021.0 1021.0 0.2
23/06:00am 4.3 3.0 4.2 99 0.0 CALM 0 0 0 0 1021.2 1021.2 0.2
23/05:30am 4.3 3.0 4.2 99 0.0 CALM 0 0 0 0 1021.3 1021.3 0.2
23/05:00am 4.2 2.9 4.1 99 0.0 CALM 0 0 0 0 1021.3 1021.3 0.2
23/04:30am 4.4 3.1 4.3 99 0.0 CALM 0 0 0 0 1021.3 1021.3 0.2
23/04:00am 4.5 3.3 4.4 99 0.0 CALM 0 0 0 0 1021.3 1021.3 0.0
23/03:30am 4.7 3.5 4.6 99 0.0 CALM 0 0 0 0 1021.7 1021.7 0.0
23/03:00am 4.8 3.6 4.7 99 0.0 CALM 0 0 0 0 1021.7 1021.7 0.0
23/02:30am 5.1 4.0 5.0 99 0.0 CALM 0 0 0 0 1022.0 1022.0 0.0
23/02:00am 5.4 4.3 5.3 99 0.0 CALM 0 0 0 0 1022.2 1022.2 0.0
23/01:30am 5.5 4.4 5.2 98 0.1 CALM 0 0 0 0 1022.5 1022.5 0.0
23/01:00am 6.0 5.1 5.9 99 0.0 CALM 0 0 0 0 1022.7 1022.7 0.0
23/12:30am 6.2 5.3 6.1 99 0.0 CALM 0 0 0 0 1022.6 1022.6 0.0
23/12:00am 6.3 5.4 6.0 98 0.1 CALM 0 0 0 0 1023.1 1023.1 0.0
 
Date/Time
EST
Temp
°C
App
Temp
°C
Dew
Point
°C
Rel
Hum
%
Delta-T
°C
Wind Press
QNH
hPa
Press
MSL
hPa
Rain since
9am
mm
Dir  Spd
km/h
Gust
km/h
Spd
kts
Gust
kts
22/11:30pm 6.8 6.0 6.7 99 0.0 CALM 0 0 0 0 1023.8 1023.8 0.0
22/11:00pm 7.1 6.4 6.8 98 0.1 CALM 0 0 0 0 1024.0 1024.0 0.0
22/10:30pm 7.6 7.0 7.3 98 0.1 CALM 0 0 0 0 1024.1 1024.1 0.0
22/10:00pm 7.6 7.0 7.3 98 0.1 CALM 0 0 0 0 1024.3 1024.3 0.0
22/09:30pm 7.9 7.3 7.6 98 0.1 CALM 0 0 0 0 1024.8 1024.8 0.0
22/09:00pm 8.6 8.2 8.2 97 0.2 CALM 0 0 0 0 1024.9 1024.9 0.0
22/08:30pm 9.0 8.7 8.6 97 0.2 CALM 0 0 0 0 1024.8 1024.8 0.0
22/08:00pm 9.2 8.9 8.6 96 0.3 CALM 0 0 0 0 1024.9 1024.9 0.0
22/07:30pm 9.9 9.8 9.6 98 0.1 CALM 0 0 0 0 1024.8 1024.8 0.0
22/07:00pm 10.3 10.3 9.8 97 0.2 CALM 0 0 0 0 1024.9 1024.9 0.0
22/06:30pm 10.5 10.5 9.9 96 0.3 CALM 0 0 0 0 1025.0 1025.0 0.0
22/06:00pm 11.4 11.6 10.6 95 0.4 CALM 0 0 0 0 1024.8 1024.8 0.0
22/05:30pm 12.3 12.7 11.4 94 0.5 CALM 0 0 0 0 1024.8 1024.8 0.0
22/05:00pm 13.3 13.8 11.5 89 1.0 CALM 0 0 0 0 1025.0 1025.0 0.0
22/04:30pm 15.0 15.6 11.8 81 1.7 CALM 0 0 0 0 1025.1 1025.1 0.0
22/04:00pm 17.2 18.0 12.5 74 2.6 CALM 0 0 0 0 1024.8 1024.8 0.0
22/03:30pm 17.1 17.8 12.2 73 2.7 CALM 0 0 0 0 1024.8 1024.8 0.0
22/03:00pm 17.1 17.0 10.9 67 3.3 E 2 6 1 3 1024.5 1024.5 0.0
22/02:30pm 16.9 16.2 11.4 70 3.0 ESE 6 7 3 4 1024.7 1024.7 0.0
22/02:00pm 18.5 18.2 11.6 64 3.8 S 4 13 2 7 1024.8 1024.8 0.0
22/01:30pm 18.2 18.6 12.6 70 3.1 WSW 2 6 1 3 1025.5 1025.5 0.0
22/01:00pm 17.8 17.2 11.8 68 3.3 WSW 6 11 3 6 1025.6 1025.6 0.0
22/12:30pm 17.1 16.2 11.4 69 3.1 SW 7 15 4 8 1026.2 1026.2 0.0
22/12:00pm 17.9 17.4 11.9 68 3.3 SW 6 13 3 7 1026.6 1026.6 0.0
22/11:30am 17.5 16.6 11.5 68 3.3 SSW 7 15 4 8 1027.2 1027.2 0.0
22/11:00am 17.4 16.7 12.1 71 2.9 S 7 11 4 6 1027.6 1027.6 0.0
22/10:30am 15.9 15.0 11.5 75 2.4 SSW 7 15 4 8 1028.2 1028.2 0.0
22/10:00am 15.6 14.8 11.6 77 2.1 WSW 7 13 4 7 1028.5 1028.5 0.0
22/09:30am 14.2 13.7 12.1 87 1.1 WSW 6 9 3 5 1028.4 1028.4 0.0
22/09:00am 11.7 12.2 11.7 100 0.0 CALM 0 0 0 0 1028.3 1028.3 0.0
22/08:30am 9.7 9.7 9.7 100 0.0 CALM 0 0 0 0 1028.1 1028.1 0.0
22/08:00am 9.2 9.0 9.2 100 0.0 CALM 0 0 0 0 1027.9 1027.9 0.0
22/07:30am 8.1 7.3 8.1 100 0.0 NNW 2 4 1 2 1027.6 1027.6 0.0
22/07:00am 7.7 7.2 7.7 100 0.0 CALM 0 4 0 2 1027.4 1027.4 0.0
22/06:30am 7.4 6.8 7.4 100 0.0 CALM 0 0 0 0 1027.1 1027.1 0.0
22/06:00am 7.2 6.5 7.1 99 0.0 CALM 0 0 0 0 1026.8 1026.8 0.0
22/05:30am 7.3 6.7 7.2 99 0.0 CALM 0 0 0 0 1026.5 1026.5 0.0
22/05:00am 7.4 6.4 7.3 99 0.0 N 2 4 1 2 1026.4 1026.4 0.0
22/04:30am 7.4 6.8 7.3 99 0.0 CALM 0 0 0 0 1026.4 1026.4 0.0
22/04:00am 7.2 6.5 7.1 99 0.0 CALM 0 0 0 0 1026.4 1026.4 0.0
22/03:30am 7.4 6.8 7.3 99 0.0 CALM 0 0 0 0 1026.3 1026.3 0.0
22/03:00am 7.8 7.3 7.7 99 0.0 CALM 0 0 0 0 1026.4 1026.4 0.0
22/02:30am 7.9 7.4 7.8 99 0.0 CALM 0 0 0 0 1026.7 1026.7 0.0
22/02:00am 7.5 6.5 7.2 98 0.1 WNW 2 4 1 2 1026.7 1026.7 0.0
22/01:30am 8.1 7.6 8.0 99 0.0 CALM 0 0 0 0 1026.9 1026.9 0.0
22/01:00am 8.4 8.0 8.3 99 0.0 CALM 0 0 0 0 1027.1 1027.1 0.0
22/12:30am 8.5 8.1 8.2 98 0.1 CALM 0 0 0 0 1027.0 1027.0 0.0
22/12:00am 8.8 8.5 8.5 98 0.1 CALM 0 0 0 0 1027.4 1027.4 0.0
 
Date/Time
EST
Temp
°C
App
Temp
°C
Dew
Point
°C
Rel
Hum
%
Delta-T
°C
Wind Press
QNH
hPa
Press
MSL
hPa
Rain since
9am
mm
Dir  Spd
km/h
Gust
km/h
Spd
kts
Gust
kts
21/11:30pm 9.0 8.7 8.6 97 0.2 CALM 0 0 0 0 1027.5 1027.5 0.0
21/11:00pm 9.4 9.1 8.6 95 0.4 CALM 0 0 0 0 1027.4 1027.4 0.0
21/10:30pm 9.8 9.6 9.0 95 0.4 CALM 0 0 0 0 1027.5 1027.5 0.0

Other Formats:

Comma delimited format used in spreadsheet applications
http://www.bom.gov.au/fwo/IDN60801/IDN60801.95767.axf

JavaScript Object Notation format (JSON) in row-major order
http://www.bom.gov.au/fwo/IDN60801/IDN60801.95767.json